createdAt,value
2022-08-07T00:02:35.192Z,2.20
2022-08-07T00:04:09.703Z,1.60
2022-08-07T00:06:47.276Z,1.70
2022-08-07T00:09:29.164Z,1.60
2022-08-07T00:12:03.156Z,1.90
2022-08-07T00:14:31.667Z,1.50
2022-08-07T00:17:01.685Z,1.40
2022-08-07T00:19:34.080Z,1.20
2022-08-07T00:22:24.663Z,1.10
2022-08-07T00:25:07.373Z,1.70
2022-08-07T00:27:53.253Z,1.80
2022-08-07T00:30:27.227Z,2.20
2022-08-07T00:32:58.352Z,2.10
2022-08-07T00:37:54.354Z,1.80
2022-08-07T00:40:36.430Z,1.70
2022-08-07T00:44:01.151Z,2.00
2022-08-07T00:45:59.090Z,1.90
2022-08-07T00:48:31.861Z,1.70
2022-08-07T00:51:02.522Z,1.80
2022-08-07T00:53:38.934Z,1.90
2022-08-07T00:56:18.739Z,1.80
2022-08-07T00:58:49.855Z,2.20
2022-08-07T01:01:22.417Z,2.00
2022-08-07T01:03:56.509Z,1.80
2022-08-07T01:06:29.634Z,1.60
2022-08-07T01:09:01.148Z,1.50
2022-08-07T01:12:27.514Z,1.70
2022-08-07T01:14:29.118Z,2.50
2022-08-07T01:16:58.033Z,2.30
2022-08-07T01:19:32.300Z,2.20
2022-08-07T01:22:01.263Z,2.00
2022-08-07T01:24:36.713Z,1.50
2022-08-07T01:27:05.222Z,1.60
2022-08-07T01:29:47.588Z,1.80
2022-08-07T01:32:19.116Z,1.70
2022-08-07T01:34:50.943Z,1.50
2022-08-07T01:37:19.077Z,1.20
2022-08-07T01:39:51.161Z,1.40
2022-08-07T01:42:39.319Z,1.40
2022-08-07T01:45:18.187Z,1.90
2022-08-07T01:48:20.014Z,1.90
2022-08-07T01:50:45.738Z,1.70
2022-08-07T01:53:21.682Z,1.50
2022-08-07T01:56:09.391Z,1.70
2022-08-07T01:58:48.168Z,1.60
2022-08-07T02:01:59.480Z,1.50
2022-08-07T02:04:26.653Z,1.50
2022-08-07T02:07:01.897Z,1.20
2022-08-07T02:09:33.897Z,1.60
2022-08-07T02:12:30.974Z,1.50
2022-08-07T02:15:01.304Z,1.50
2022-08-07T02:17:40.185Z,1.40
2022-08-07T02:20:19.827Z,1.50
2022-08-07T02:23:03.601Z,1.40
2022-08-07T02:26:30.736Z,2.00
2022-08-07T02:28:27.148Z,1.70
2022-08-07T02:30:58.972Z,1.50
2022-08-07T02:33:32.904Z,1.30
2022-08-07T02:36:30.214Z,1.30
2022-08-07T02:39:16.082Z,1.30
2022-08-07T02:41:54.569Z,1.70
2022-08-07T02:44:27.542Z,1.60
2022-08-07T02:47:00.846Z,1.40
2022-08-07T02:49:59.060Z,1.30
2022-08-07T02:52:31.213Z,1.40
2022-08-07T02:56:02.347Z,1.40
2022-08-07T02:58:22.068Z,1.50
2022-08-07T03:00:58.576Z,1.90
2022-08-07T03:03:49.945Z,1.30
2022-08-07T03:06:25.942Z,1.70
2022-08-07T03:09:03.021Z,1.60
2022-08-07T03:11:38.659Z,1.70
2022-08-07T03:14:07.682Z,1.30
2022-08-07T03:16:36.403Z,1.30
2022-08-07T03:19:07.437Z,1.60
2022-08-07T03:21:37.372Z,1.40
2022-08-07T03:24:20.376Z,2.00
2022-08-07T03:27:00.561Z,1.50
2022-08-07T03:29:49.539Z,1.10
2022-08-07T03:32:28.414Z,1.30
2022-08-07T03:35:16.511Z,1.80
2022-08-07T03:37:53.370Z,1.70
2022-08-07T03:40:30.772Z,1.50
2022-08-07T03:43:10.065Z,1.60
2022-08-07T03:45:47.846Z,1.60
2022-08-07T03:48:17.798Z,1.60
2022-08-07T03:50:56.250Z,1.20
2022-08-07T03:54:01.945Z,1.50
2022-08-07T03:56:33.235Z,1.50
2022-08-07T03:59:10.115Z,1.50
2022-08-07T04:01:46.395Z,1.50
2022-08-07T04:06:50.949Z,2.10
2022-08-07T04:09:23.371Z,1.80
2022-08-07T04:12:21.252Z,2.00
2022-08-07T04:14:46.153Z,1.70
2022-08-07T04:17:20.720Z,2.20
2022-08-07T04:19:54.355Z,2.20
2022-08-07T04:22:28.418Z,2.00
2022-08-07T04:25:01.336Z,1.90
2022-08-07T04:27:35.742Z,1.40
2022-08-07T04:30:36.008Z,1.40
2022-08-07T04:33:07.995Z,1.60
2022-08-07T04:35:38.886Z,1.50
2022-08-07T04:38:11.362Z,1.30
2022-08-07T04:40:52.457Z,1.80
2022-08-07T04:44:09.619Z,1.40
2022-08-07T04:47:04.141Z,1.60
2022-08-07T04:49:42.564Z,1.90
2022-08-07T04:52:53.675Z,1.30
2022-08-07T04:58:24.427Z,1.50
2022-08-07T05:02:08.704Z,1.50
2022-08-07T05:04:53.474Z,1.50
2022-08-07T05:07:51.455Z,1.40
2022-08-07T05:10:29.238Z,1.50
2022-08-07T05:14:44.355Z,1.40
2022-08-07T05:15:58.150Z,1.20
2022-08-07T05:18:30.574Z,1.20
2022-08-07T05:21:03.944Z,1.20
2022-08-07T05:23:59.483Z,1.10
2022-08-07T05:26:31.201Z,1.50
2022-08-07T05:29:06.442Z,1.00
2022-08-07T05:31:39.495Z,1.30
2022-08-07T05:34:16.016Z,1.30
2022-08-07T05:36:55.936Z,1.60
2022-08-07T05:40:13.581Z,1.20
2022-08-07T05:42:34.492Z,1.40
2022-08-07T05:45:26.042Z,1.30
2022-08-07T05:48:02.719Z,0.90
2022-08-07T05:50:43.326Z,1.00
2022-08-07T05:54:13.758Z,0.90
2022-08-07T05:56:05.879Z,1.10
2022-08-07T05:58:39.167Z,1.00
2022-08-07T06:01:11.207Z,1.40
2022-08-07T06:03:57.016Z,1.20
2022-08-07T06:06:32.853Z,1.10
2022-08-07T06:09:04.324Z,1.20
2022-08-07T06:11:34.790Z,1.10
2022-08-07T06:14:11.884Z,1.40
2022-08-07T06:16:50.765Z,1.00
2022-08-07T06:19:52.107Z,1.20
2022-08-07T06:22:23.929Z,0.90
2022-08-07T06:25:14.848Z,1.20
2022-08-07T06:28:01.419Z,1.10
2022-08-07T06:30:35.552Z,1.30
2022-08-07T06:33:10.041Z,1.60
2022-08-07T06:35:47.770Z,1.10
2022-08-07T06:38:33.269Z,1.50
2022-08-07T06:41:13.080Z,1.40
2022-08-07T06:43:46.388Z,1.20
2022-08-07T06:46:31.118Z,1.50
2022-08-07T06:49:04.555Z,1.90
2022-08-07T06:51:35.986Z,1.70
2022-08-07T06:55:31.566Z,2.00
2022-08-07T06:57:09.412Z,1.80
2022-08-07T07:00:12.996Z,1.60
2022-08-07T07:02:48.873Z,1.40
2022-08-07T07:06:02.788Z,1.30
2022-08-07T07:08:12.497Z,1.60
2022-08-07T07:10:47.626Z,1.20
2022-08-07T07:13:56.710Z,1.30
2022-08-07T07:16:30.563Z,1.10
2022-08-07T07:19:23.611Z,1.30
2022-08-07T07:22:05.328Z,1.30
2022-08-07T07:25:02.730Z,1.20
2022-08-07T07:27:58.549Z,1.40
2022-08-07T07:30:38.000Z,1.10
2022-08-07T07:33:12.130Z,1.10
2022-08-07T07:36:04.082Z,0.90
2022-08-07T07:38:33.359Z,1.00
2022-08-07T07:41:08.732Z,1.10
2022-08-07T07:44:14.787Z,1.40
2022-08-07T07:46:53.395Z,1.10
2022-08-07T07:50:35.221Z,2.30
2022-08-07T07:52:13.949Z,1.00
2022-08-07T07:54:51.074Z,1.00
2022-08-07T07:57:50.554Z,0.90
2022-08-07T08:00:20.827Z,1.00
2022-08-07T08:03:16.658Z,0.70
2022-08-07T08:06:01.820Z,1.30
2022-08-07T08:08:36.900Z,1.30
2022-08-07T08:11:08.408Z,1.40
2022-08-07T08:14:10.716Z,1.30
2022-08-07T08:16:50.198Z,2.00
2022-08-07T08:20:16.125Z,1.00
2022-08-07T08:22:33.029Z,1.20
2022-08-07T08:25:26.808Z,1.20
2022-08-07T08:28:16.870Z,1.20
2022-08-07T08:31:03.812Z,1.60
2022-08-07T08:33:36.320Z,0.90
2022-08-07T08:36:09.859Z,0.80
2022-08-07T08:38:43.521Z,1.00
2022-08-07T08:41:23.032Z,0.80
2022-08-07T08:44:07.495Z,1.20
2022-08-07T08:47:29.488Z,1.00
2022-08-07T08:50:39.081Z,1.30
2022-08-07T08:53:22.581Z,0.90
2022-08-07T08:55:54.304Z,1.30
2022-08-07T08:58:47.698Z,0.90
2022-08-07T09:01:40.060Z,1.20
2022-08-07T09:04:44.648Z,1.00
2022-08-07T09:07:45.957Z,0.80
2022-08-07T09:10:27.482Z,0.90
2022-08-07T09:13:10.533Z,1.10
2022-08-07T09:16:24.819Z,0.70
2022-08-07T09:19:07.349Z,0.80
2022-08-07T09:22:39.399Z,1.90
2022-08-07T09:25:11.978Z,1.10
2022-08-07T09:28:06.358Z,0.80
2022-08-07T09:31:04.421Z,1.20
2022-08-07T09:33:58.300Z,0.70
2022-08-07T09:36:37.309Z,1.10
2022-08-07T09:39:55.124Z,1.10
2022-08-07T09:42:39.060Z,1.00
2022-08-07T09:47:20.071Z,0.90
2022-08-07T09:48:55.983Z,1.00
2022-08-07T09:52:15.669Z,0.80
2022-08-07T09:54:47.913Z,0.70
2022-08-07T09:57:37.503Z,0.70
2022-08-07T10:00:16.447Z,0.70
2022-08-07T10:04:05.431Z,0.70
2022-08-07T10:06:29.244Z,0.80
2022-08-07T10:09:06.125Z,0.90
2022-08-07T10:12:02.288Z,0.80
2022-08-07T10:14:56.184Z,1.00
2022-08-07T10:18:12.467Z,1.10
2022-08-07T10:20:57.097Z,0.70
2022-08-07T10:24:05.083Z,0.70
2022-08-07T10:26:36.891Z,0.80
2022-08-07T10:29:45.844Z,0.70
2022-08-07T10:32:50.943Z,1.10
2022-08-07T10:35:55.065Z,0.70
2022-08-07T10:38:48.533Z,1.00
2022-08-07T10:41:51.680Z,0.50
2022-08-07T10:44:40.025Z,0.70
2022-08-07T10:47:51.346Z,0.90
2022-08-07T10:50:32.178Z,0.80
2022-08-07T10:53:44.893Z,0.70
2022-08-07T10:56:46.347Z,0.60
2022-08-07T10:59:45.363Z,0.70
2022-08-07T11:02:40.066Z,1.10
2022-08-07T11:05:50.522Z,0.90
2022-08-07T11:08:43.617Z,0.80
2022-08-07T11:11:22.992Z,0.50
2022-08-07T11:14:44.699Z,0.90
2022-08-07T11:17:07.376Z,0.80
2022-08-07T11:19:51.354Z,0.80
2022-08-07T11:22:37.197Z,0.70
2022-08-07T11:25:23.141Z,0.70
2022-08-07T11:28:04.641Z,1.00
2022-08-07T11:30:46.683Z,0.70
2022-08-07T11:33:58.610Z,1.00
2022-08-07T11:36:49.597Z,1.10
2022-08-07T11:40:00.207Z,0.80
2022-08-07T11:43:11.770Z,0.80
2022-08-07T11:46:06.503Z,1.80
2022-08-07T11:49:27.605Z,1.00
2022-08-07T11:52:29.283Z,1.00
2022-08-07T11:56:15.754Z,1.10
2022-08-07T11:58:33.833Z,1.10
2022-08-07T12:03:54.591Z,1.10
2022-08-07T12:06:39.026Z,0.80
2022-08-07T12:09:23.306Z,0.90
2022-08-07T12:12:12.445Z,1.00
2022-08-07T12:15:05.234Z,1.20
2022-08-07T12:17:59.318Z,1.10
2022-08-07T12:20:34.863Z,0.80
2022-08-07T12:23:16.516Z,0.80
2022-08-07T12:26:23.614Z,1.00
2022-08-07T12:29:06.234Z,0.90
2022-08-07T12:32:04.655Z,1.30
2022-08-07T12:34:36.996Z,1.50
2022-08-07T12:37:08.702Z,1.10
2022-08-07T12:39:51.620Z,1.20
2022-08-07T12:42:27.490Z,1.30
2022-08-07T12:44:59.580Z,1.40
2022-08-07T12:47:44.067Z,1.00
2022-08-07T12:50:40.203Z,1.20
2022-08-07T12:54:03.117Z,1.20
2022-08-07T12:56:34.988Z,1.10
2022-08-07T12:59:08.330Z,1.30
2022-08-07T13:02:03.242Z,1.40
2022-08-07T13:05:01.147Z,1.10
2022-08-07T13:08:13.392Z,1.30
2022-08-07T13:10:59.421Z,1.10
2022-08-07T13:13:50.609Z,1.40
2022-08-07T13:16:46.901Z,0.90
2022-08-07T13:19:50.395Z,0.90
2022-08-07T13:22:30.423Z,1.60
2022-08-07T13:25:24.329Z,0.90
2022-08-07T13:28:10.861Z,1.50
2022-08-07T13:31:02.017Z,1.20
2022-08-07T13:34:29.851Z,1.30
2022-08-07T13:36:59.459Z,1.10
2022-08-07T13:40:35.061Z,1.10
2022-08-07T13:42:39.846Z,1.00
2022-08-07T13:46:07.891Z,1.30
2022-08-07T13:48:06.389Z,1.00
2022-08-07T13:50:44.765Z,1.10
2022-08-07T13:53:36.052Z,1.60
2022-08-07T13:56:35.375Z,1.40
2022-08-07T13:59:15.360Z,1.20
2022-08-07T14:01:51.153Z,1.20
2022-08-07T14:04:49.225Z,1.10
2022-08-07T14:07:21.447Z,1.30
2022-08-07T14:10:17.658Z,1.10
2022-08-07T14:12:57.130Z,1.10
2022-08-07T14:15:44.270Z,1.20
2022-08-07T14:18:29.845Z,1.10
2022-08-07T14:22:01.860Z,0.90
2022-08-07T14:24:22.970Z,2.80
2022-08-07T14:27:00.729Z,1.30
2022-08-07T14:30:06.613Z,1.00
2022-08-07T14:32:48.183Z,1.60
2022-08-07T14:35:44.956Z,1.20
2022-08-07T14:38:26.675Z,1.20
2022-08-07T14:41:05.657Z,1.00
2022-08-07T14:43:58.983Z,1.10
2022-08-07T14:46:32.547Z,1.50
2022-08-07T14:49:17.294Z,1.40
2022-08-07T14:54:44.536Z,1.00
2022-08-07T14:57:19.571Z,1.10
2022-08-07T15:00:06.997Z,1.50
2022-08-07T15:02:37.053Z,1.20
2022-08-07T15:05:19.591Z,1.10
2022-08-07T15:07:51.967Z,1.40
2022-08-07T15:13:19.360Z,1.20
2022-08-07T15:15:52.211Z,1.20
2022-08-07T15:18:35.735Z,1.00
2022-08-07T15:21:58.595Z,1.30
2022-08-07T15:25:14.364Z,1.20
2022-08-07T15:27:12.452Z,1.40
2022-08-07T15:30:04.796Z,1.20
2022-08-07T15:36:02.062Z,2.50
2022-08-07T15:38:18.370Z,5.50
2022-08-07T15:42:42.244Z,3.50
2022-08-07T15:44:04.784Z,1.60
2022-08-07T15:46:38.357Z,1.40
2022-08-07T15:49:15.093Z,1.90
2022-08-07T15:54:39.706Z,1.00
2022-08-07T15:57:27.878Z,1.10
2022-08-07T16:00:06.256Z,1.10
2022-08-07T16:02:49.998Z,1.50
2022-08-07T16:05:23.170Z,1.20
2022-08-07T16:08:31.347Z,1.70
2022-08-07T16:11:27.221Z,1.30
2022-08-07T16:14:19.910Z,1.10
2022-08-07T16:18:02.190Z,1.40
2022-08-07T16:20:33.612Z,1.20
2022-08-07T16:23:25.373Z,1.60
2022-08-07T16:26:34.553Z,1.10
2022-08-07T16:30:11.553Z,1.20
2022-08-07T16:32:35.808Z,1.50
2022-08-07T16:35:59.326Z,1.20
2022-08-07T16:39:02.194Z,1.50
2022-08-07T16:41:41.176Z,1.00
2022-08-07T16:45:13.967Z,1.40
2022-08-07T16:48:05.859Z,1.10
2022-08-07T16:51:07.345Z,1.40
2022-08-07T16:54:06.232Z,1.20
2022-08-07T16:56:55.007Z,1.30
2022-08-07T16:59:46.114Z,1.10
2022-08-07T17:02:53.517Z,1.70
2022-08-07T17:06:28.773Z,1.70
2022-08-07T17:10:07.195Z,1.30
2022-08-07T17:12:56.929Z,1.90
2022-08-07T17:15:57.069Z,1.40
2022-08-07T17:19:02.956Z,1.80
2022-08-07T17:21:53.709Z,2.90
2022-08-07T17:25:03.735Z,1.50
2022-08-07T17:28:32.442Z,1.50
2022-08-07T17:32:02.503Z,4.20
2022-08-07T17:35:51.306Z,1.80
2022-08-07T17:39:15.585Z,1.40
2022-08-07T17:42:06.766Z,2.10
2022-08-07T17:44:45.288Z,1.70
2022-08-07T17:47:37.928Z,1.90
2022-08-07T17:50:30.517Z,2.00
2022-08-07T17:53:59.845Z,1.80
2022-08-07T17:56:15.333Z,2.10
2022-08-07T17:58:54.415Z,1.90
2022-08-07T18:01:36.719Z,2.60
2022-08-07T18:04:38.505Z,2.40
2022-08-07T18:07:20.044Z,1.90
2022-08-07T18:10:05.915Z,2.40
2022-08-07T18:13:09.852Z,2.00
2022-08-07T18:15:53.470Z,1.40
2022-08-07T18:18:47.543Z,2.60
2022-08-07T18:21:51.619Z,2.00
2022-08-07T18:24:34.280Z,2.00
2022-08-07T18:27:17.395Z,2.60
2022-08-07T18:30:07.038Z,2.50
2022-08-07T18:32:55.065Z,2.30
2022-08-07T18:35:55.724Z,2.60
2022-08-07T18:38:56.383Z,2.90
2022-08-07T18:42:12.983Z,3.40
2022-08-07T18:45:44.819Z,2.40
2022-08-07T18:50:05.311Z,2.60
2022-08-07T18:52:35.499Z,2.50
2022-08-07T18:54:51.099Z,2.90
2022-08-07T18:58:00.468Z,2.30
2022-08-07T19:00:54.251Z,2.60
2022-08-07T19:03:37.779Z,3.20
2022-08-07T19:06:16.310Z,3.80
2022-08-07T19:09:09.432Z,2.50
2022-08-07T19:12:06.714Z,2.30
2022-08-07T19:15:01.012Z,2.30
2022-08-07T19:18:05.394Z,2.00
2022-08-07T19:21:08.347Z,1.90
2022-08-07T19:23:57.235Z,2.30
2022-08-07T19:27:09.033Z,2.80
2022-08-07T19:31:05.818Z,2.50
2022-08-07T19:32:26.587Z,2.30
2022-08-07T19:35:09.721Z,1.80
2022-08-07T19:37:56.475Z,1.90
2022-08-07T19:40:34.633Z,1.80
2022-08-07T19:43:21.223Z,1.90
2022-08-07T19:46:07.390Z,2.10
2022-08-07T19:48:42.173Z,2.30
2022-08-07T19:51:19.867Z,2.30
2022-08-07T19:54:31.864Z,2.20
2022-08-07T19:57:51.277Z,2.20
2022-08-07T19:59:41.558Z,2.30
2022-08-07T20:02:19.744Z,2.20
2022-08-07T20:04:51.997Z,2.10
2022-08-07T20:07:47.171Z,2.00
2022-08-07T20:10:38.176Z,2.50
2022-08-07T20:13:22.918Z,2.30
2022-08-07T20:15:58.338Z,1.60
2022-08-07T20:18:32.684Z,2.00
2022-08-07T20:21:21.989Z,1.90
2022-08-07T20:23:58.012Z,2.90
2022-08-07T20:26:38.945Z,2.50
2022-08-07T20:29:49.493Z,2.00
2022-08-07T20:32:11.642Z,2.10
2022-08-07T20:34:53.135Z,2.10
2022-08-07T20:37:37.115Z,2.30
2022-08-07T20:40:32.164Z,1.90
2022-08-07T20:43:09.388Z,1.90
2022-08-07T20:46:27.060Z,2.80
2022-08-07T20:48:31.120Z,3.00
2022-08-07T20:51:04.004Z,2.80
2022-08-07T20:54:03.491Z,2.90
2022-08-07T20:56:28.825Z,2.40
2022-08-07T20:59:01.377Z,3.10
2022-08-07T21:01:45.225Z,3.40
2022-08-07T21:04:26.423Z,2.90
2022-08-07T21:07:04.270Z,2.60
2022-08-07T21:09:52.437Z,2.70
2022-08-07T21:12:31.595Z,2.70
2022-08-07T21:15:05.047Z,3.30
2022-08-07T21:18:06.634Z,3.10
2022-08-07T21:20:29.571Z,3.20
2022-08-07T21:23:42.853Z,2.60
2022-08-07T21:26:59.825Z,3.00
2022-08-07T21:29:38.180Z,2.90
2022-08-07T21:32:49.565Z,2.70
2022-08-07T21:36:05.158Z,3.10
2022-08-07T21:38:35.967Z,3.00
2022-08-07T21:41:18.028Z,2.90
2022-08-07T21:44:14.231Z,2.50
2022-08-07T21:47:02.040Z,2.50
2022-08-07T21:50:02.426Z,2.40
2022-08-07T21:52:40.443Z,2.40
2022-08-07T21:55:27.826Z,2.50
2022-08-07T21:58:30.450Z,2.40
2022-08-07T22:01:14.072Z,2.30
2022-08-07T22:04:03.822Z,2.40
2022-08-07T22:06:38.652Z,2.10
2022-08-07T22:09:17.344Z,2.40
2022-08-07T22:11:52.974Z,2.20
2022-08-07T22:14:57.909Z,2.00
2022-08-07T22:17:35.875Z,2.20
2022-08-07T22:20:43.991Z,2.10
2022-08-07T22:23:11.184Z,2.30
2022-08-07T22:26:10.362Z,2.50
2022-08-07T22:29:17.446Z,2.60
2022-08-07T22:32:08.066Z,1.90
2022-08-07T22:34:56.062Z,2.30
2022-08-07T22:38:04.460Z,2.00
2022-08-07T22:41:00.035Z,2.70
2022-08-07T22:43:37.555Z,2.60
2022-08-07T22:47:02.621Z,2.50
2022-08-07T22:49:37.904Z,2.80
2022-08-07T22:52:37.252Z,2.30
2022-08-07T22:55:23.513Z,2.20
2022-08-07T22:58:35.366Z,2.20
2022-08-07T23:01:23.748Z,2.80
2022-08-07T23:04:30.707Z,2.90
2022-08-07T23:07:04.491Z,2.50
2022-08-07T23:10:41.236Z,2.00
2022-08-07T23:13:29.245Z,2.10
2022-08-07T23:16:46.470Z,2.40
2022-08-07T23:19:38.748Z,2.50
2022-08-07T23:22:29.013Z,2.40
2022-08-07T23:25:07.630Z,1.90
2022-08-07T23:28:22.924Z,2.40
2022-08-07T23:32:49.273Z,2.00
2022-08-07T23:35:07.252Z,1.90
2022-08-07T23:38:00.398Z,1.60
2022-08-07T23:40:49.392Z,2.10
2022-08-07T23:44:01.009Z,2.20
2022-08-07T23:46:43.268Z,1.90
2022-08-07T23:49:49.891Z,2.00
2022-08-07T23:53:08.781Z,1.80
2022-08-07T23:55:52.465Z,2.60
2022-08-07T23:59:10.790Z,2.00
